Time;durP1;ratioP1;P1;durP2;ratioP2;P2;SDS_P1;SDS_P2;PMS_P1;PMS_P2;Temp;Humidity;BMP_temperature;BMP_pressure;BME280_temperature;BME280_humidity;BME280_pressure;Samples;Min_cycle;Max_cycle;Signal;HPM_P1;HPM_P2
2020/12/07 00:00:07;;;;;;;1.00;0.75;;;8.50;99.90;;;;;;4372273;32;20097;-57
2020/12/07 00:02:33;;;;;;;1.35;1.25;;;8.60;99.90;;;;;;4385104;32;20500;-55
2020/12/07 00:04:59;;;;;;;2.95;0.98;;;8.60;99.90;;;;;;4397424;32;20065;-57
2020/12/07 00:07:25;;;;;;;1.67;0.90;;;8.50;99.90;;;;;;4416299;32;20113;-57
2020/12/07 00:09:51;;;;;;;1.35;1.02;;;8.50;99.90;;;;;;4407078;32;20062;-56
2020/12/07 00:12:16;;;;;;;2.53;1.60;;;8.50;99.90;;;;;;4400898;32;20133;-56
2020/12/07 00:14:42;;;;;;;0.52;0.52;;;8.50;99.90;;;;;;4400683;32;20555;-58
2020/12/07 00:17:07;;;;;;;3.03;1.27;;;8.50;99.90;;;;;;4400858;32;20518;-56
2020/12/07 00:19:33;;;;;;;10.18;1.58;;;8.50;99.90;;;;;;4399528;32;20544;-58
2020/12/07 00:21:58;;;;;;;0.40;0.40;;;8.50;99.90;;;;;;4401437;32;20082;-57
2020/12/07 00:24:24;;;;;;;0.90;0.90;;;8.50;99.90;;;;;;4400253;32;20082;-58
2020/12/07 00:26:49;;;;;;;0.82;0.75;;;8.50;99.90;;;;;;4400314;32;20487;-56
2020/12/07 00:29:15;;;;;;;1.05;0.90;;;8.50;99.90;;;;;;4395550;32;20071;-55
2020/12/07 00:31:40;;;;;;;3.80;1.42;;;8.50;99.90;;;;;;4385996;32;20071;-57
2020/12/07 00:34:06;;;;;;;5.22;1.40;;;8.50;99.90;;;;;;4384942;32;20528;-57
2020/12/07 00:36:31;;;;;;;0.90;0.90;;;8.50;99.90;;;;;;4386433;32;20058;-56
2020/12/07 00:38:56;;;;;;;5.15;2.72;;;8.50;99.90;;;;;;4387691;32;20086;-56
2020/12/07 00:41:23;;;;;;;6.82;2.37;;;8.40;99.90;;;;;;4391218;32;20078;-55
2020/12/07 00:43:49;;;;;;;0.73;0.70;;;8.40;99.90;;;;;;4399069;32;20523;-56
2020/12/07 00:46:15;;;;;;;1.52;1.23;;;8.40;99.90;;;;;;4402037;32;20142;-56
2020/12/07 00:48:41;;;;;;;0.75;0.75;;;8.30;99.90;;;;;;4398921;32;20137;-56
2020/12/07 00:51:06;;;;;;;1.45;1.35;;;8.30;99.90;;;;;;4400502;32;20520;-58
2020/12/07 00:53:32;;;;;;;7.97;1.85;;;8.30;99.90;;;;;;4400361;32;20066;-58
2020/12/07 00:55:58;;;;;;;0.80;0.80;;;8.30;99.90;;;;;;4399061;32;20070;-57
2020/12/07 00:58:23;;;;;;;2.03;1.15;;;8.30;99.90;;;;;;4399032;32;20109;-58
2020/12/07 01:00:49;;;;;;;0.82;0.82;;;8.30;99.90;;;;;;4400362;32;20070;-55
2020/12/07 01:03:14;;;;;;;3.80;1.02;;;8.30;99.90;;;;;;4400622;32;20074;-57
2020/12/07 01:05:40;;;;;;;1.25;1.15;;;8.30;99.90;;;;;;4400950;32;20491;-58
2020/12/07 01:08:05;;;;;;;1.10;0.80;;;8.30;99.90;;;;;;4400890;32;20062;-60
2020/12/07 01:10:31;;;;;;;0.50;0.50;;;8.40;99.90;;;;;;4385752;32;20419;-54
2020/12/07 01:12:56;;;;;;;1.98;1.02;;;8.40;99.90;;;;;;4384419;32;20075;-56
2020/12/07 01:15:21;;;;;;;1.12;0.93;;;8.50;99.90;;;;;;4385642;32;20135;-59
2020/12/07 01:17:47;;;;;;;1.62;1.25;;;8.50;99.90;;;;;;4384663;32;20059;-58
2020/12/07 01:20:12;;;;;;;1.58;0.85;;;8.50;99.90;;;;;;4386388;32;20074;-57
2020/12/07 01:22:38;;;;;;;1.12;0.90;;;8.50;99.90;;;;;;4385549;32;20087;-57
2020/12/07 01:25:04;;;;;;;1.05;0.93;;;8.50;99.90;;;;;;4384701;32;20067;-60
2020/12/07 01:27:29;;;;;;;2.80;2.10;;;8.50;99.90;;;;;;4384983;32;20113;-57
2020/12/07 01:29:55;;;;;;;3.33;1.23;;;8.50;99.90;;;;;;4382356;32;20117;-59
2020/12/07 01:32:20;;;;;;;2.33;1.45;;;8.50;99.90;;;;;;4400166;32;20078;-59
2020/12/07 01:34:46;;;;;;;1.25;1.02;;;8.50;99.90;;;;;;4400083;32;20066;-59
2020/12/07 01:37:11;;;;;;;6.87;2.53;;;8.50;99.90;;;;;;4401336;32;20054;-59
2020/12/07 01:39:36;;;;;;;2.50;1.17;;;8.50;99.90;;;;;;4400028;32;20073;-59
2020/12/07 01:42:02;;;;;;;1.77;1.00;;;8.60;99.90;;;;;;4399879;32;20117;-58
2020/12/07 01:44:28;;;;;;;1.67;1.42;;;8.60;99.90;;;;;;4387016;32;20066;-59
2020/12/07 01:46:53;;;;;;;6.72;0.90;;;8.60;99.90;;;;;;4399386;32;20121;-55
2020/12/07 01:49:19;;;;;;;0.60;0.55;;;8.70;99.90;;;;;;4394234;32;20081;-56
2020/12/07 01:51:44;;;;;;;1.12;1.00;;;8.60;99.90;;;;;;4385062;32;20062;-58
2020/12/07 01:54:10;;;;;;;0.55;0.55;;;8.70;99.90;;;;;;4372296;32;20086;-59
2020/12/07 01:56:38;;;;;;;0.75;0.60;;;8.70;99.90;;;;;;4384496;32;20070;-59
2020/12/07 01:59:03;;;;;;;3.50;1.67;;;8.70;99.90;;;;;;4384936;32;20469;-58
2020/12/07 02:01:29;;;;;;;3.95;1.15;;;8.80;99.90;;;;;;4371649;32;20082;-59
2020/12/07 02:03:55;;;;;;;5.43;1.50;;;8.80;99.90;;;;;;4384734;32;20083;-59
2020/12/07 02:06:21;;;;;;;0.90;0.90;;;8.80;99.90;;;;;;4413050;32;20522;-59
2020/12/07 02:08:48;;;;;;;1.48;1.37;;;8.80;99.90;;;;;;4388805;32;20066;-57
2020/12/07 02:11:14;;;;;;;0.60;0.60;;;8.90;99.90;;;;;;4374737;32;20070;-57
2020/12/07 02:13:40;;;;;;;2.08;1.52;;;8.90;99.90;;;;;;4400084;32;20117;-59
2020/12/07 02:16:05;;;;;;;2.62;1.17;;;8.90;99.90;;;;;;4400672;32;20071;-56
2020/12/07 02:18:31;;;;;;;3.53;1.23;;;8.90;99.90;;;;;;4399755;32;20121;-59
2020/12/07 02:20:56;;;;;;;1.48;1.02;;;8.90;99.90;;;;;;4384398;32;20070;-57
2020/12/07 02:23:22;;;;;;;1.75;1.17;;;9.00;99.90;;;;;;4399060;32;20082;-56
2020/12/07 02:25:47;;;;;;;2.50;1.20;;;9.00;99.90;;;;;;4403239;32;20436;-58
2020/12/07 02:28:13;;;;;;;1.62;1.10;;;9.00;99.90;;;;;;4402016;32;20066;-58
2020/12/07 02:30:38;;;;;;;1.15;1.05;;;9.00;99.90;;;;;;4390329;32;20521;-60
2020/12/07 02:33:04;;;;;;;1.83;1.30;;;9.10;99.90;;;;;;4388374;32;20066;-60
2020/12/07 02:35:29;;;;;;;2.78;1.70;;;9.10;99.90;;;;;;4386977;32;20091;-58
2020/12/07 02:37:55;;;;;;;21.70;2.78;;;9.10;99.90;;;;;;4387208;32;20504;-58
2020/12/07 02:40:20;;;;;;;1.33;1.23;;;9.00;99.90;;;;;;4388385;32;20087;-57
2020/12/07 02:42:46;;;;;;;14.95;2.67;;;9.10;99.90;;;;;;4387185;32;20066;-59
2020/12/07 02:45:13;;;;;;;3.10;1.87;;;9.10;99.90;;;;;;4388128;32;20058;-55
2020/12/07 02:47:40;;;;;;;1.48;1.30;;;9.10;99.90;;;;;;4362340;32;20429;-59
2020/12/07 02:50:07;;;;;;;3.08;1.85;;;9.10;99.90;;;;;;4387305;32;20077;-58
2020/12/07 02:52:33;;;;;;;0.80;0.73;;;9.10;99.90;;;;;;4388674;32;20069;-60
2020/12/07 02:55:01;;;;;;;1.08;0.95;;;9.10;99.90;;;;;;4402158;32;20066;-59
2020/12/07 02:57:27;;;;;;;2.37;0.88;;;9.00;99.90;;;;;;4387961;32;20117;-58
2020/12/07 02:59:53;;;;;;;1.05;0.98;;;9.10;99.90;;;;;;4374188;32;20065;-57
2020/12/07 03:02:19;;;;;;;0.77;0.77;;;9.10;99.90;;;;;;4376480;32;20491;-59
2020/12/07 03:04:45;;;;;;;7.03;0.95;;;9.20;99.90;;;;;;4392273;32;20065;-60
2020/12/07 03:07:10;;;;;;;1.02;0.82;;;9.20;99.90;;;;;;4403639;32;20062;-57
2020/12/07 03:09:36;;;;;;;2.05;0.73;;;9.20;99.90;;;;;;4406291;32;20634;-57
2020/12/07 03:12:03;;;;;;;2.25;1.05;;;9.20;99.90;;;;;;4401808;32;20412;-56
2020/12/07 03:14:28;;;;;;;2.00;1.58;;;9.30;99.90;;;;;;4388413;32;20070;-57
2020/12/07 03:16:54;;;;;;;2.25;1.95;;;9.30;99.90;;;;;;4401766;32;20079;-55
2020/12/07 03:19:19;;;;;;;1.20;0.80;;;9.30;99.90;;;;;;4401549;32;20066;-58
2020/12/07 03:21:45;;;;;;;1.40;1.20;;;9.30;99.90;;;;;;4401724;32;20132;-57
2020/12/07 03:24:11;;;;;;;1.08;0.98;;;9.20;99.90;;;;;;4401942;32;20496;-55
2020/12/07 03:26:37;;;;;;;1.73;1.00;;;9.10;99.90;;;;;;4387451;32;20074;-57
2020/12/07 03:29:04;;;;;;;1.50;1.25;;;9.10;99.90;;;;;;4388058;32;20069;-57
2020/12/07 03:31:31;;;;;;;1.37;1.25;;;9.10;99.90;;;;;;4379905;32;20070;-56
2020/12/07 03:33:57;;;;;;;1.45;1.12;;;9.10;99.90;;;;;;4360794;32;20079;-55
2020/12/07 03:36:22;;;;;;;1.73;1.40;;;9.10;99.90;;;;;;4373676;32;20066;-55
2020/12/07 03:38:48;;;;;;;3.42;1.20;;;9.10;99.90;;;;;;4386470;32;20086;-58
2020/12/07 03:41:14;;;;;;;1.52;0.88;;;9.00;99.90;;;;;;4387440;32;20152;-58
2020/12/07 03:43:39;;;;;;;4.68;1.67;;;9.00;99.90;;;;;;4386078;32;20050;-58
2020/12/07 03:46:05;;;;;;;2.12;1.60;;;9.00;99.90;;;;;;4388110;32;20066;-58
2020/12/07 03:48:30;;;;;;;1.75;1.00;;;9.00;99.90;;;;;;4372367;32;20070;-54
2020/12/07 03:50:56;;;;;;;1.85;1.00;;;8.90;99.90;;;;;;4386395;32;20078;-53
2020/12/07 03:53:21;;;;;;;1.77;1.20;;;8.90;99.90;;;;;;4388357;32;20420;-55
2020/12/07 03:55:47;;;;;;;2.25;1.02;;;8.90;99.90;;;;;;4386592;32;20075;-57
2020/12/07 03:58:12;;;;;;;3.97;1.60;;;8.90;99.90;;;;;;4386007;32;20125;-56
2020/12/07 04:00:38;;;;;;;2.42;1.10;;;8.90;99.90;;;;;;4373890;32;20536;-57
2020/12/07 04:03:06;;;;;;;0.70;0.70;;;8.80;99.90;;;;;;4373479;32;20079;-57
2020/12/07 04:05:37;;;;;;;7.30;1.40;;;8.80;99.90;;;;;;4403620;32;20128;-56
2020/12/07 04:08:03;;;;;;;1.80;0.98;;;8.70;99.90;;;;;;4417009;32;20061;-58
2020/12/07 04:10:28;;;;;;;1.17;1.10;;;8.70;99.90;;;;;;4402455;32;20062;-58
2020/12/07 04:12:54;;;;;;;1.25;1.12;;;8.80;99.90;;;;;;4416053;32;20128;-57
2020/12/07 04:15:19;;;;;;;1.27;1.17;;;8.70;99.90;;;;;;4416449;32;20073;-59
2020/12/07 04:17:45;;;;;;;0.93;0.85;;;8.70;99.90;;;;;;4416320;32;20082;-59
2020/12/07 04:20:10;;;;;;;5.45;0.98;;;8.70;99.90;;;;;;4388727;32;20189;-58
2020/12/07 04:22:36;;;;;;;2.20;0.98;;;8.70;99.90;;;;;;4386052;32;20422;-56
2020/12/07 04:25:02;;;;;;;1.15;0.77;;;8.70;99.90;;;;;;4385457;32;20081;-57
2020/12/07 04:27:28;;;;;;;1.37;0.68;;;8.70;99.90;;;;;;4372744;32;20133;-58
2020/12/07 04:29:53;;;;;;;4.15;1.48;;;8.70;99.90;;;;;;4385297;32;20087;-59
2020/12/07 04:32:19;;;;;;;2.62;1.17;;;8.70;99.90;;;;;;4385014;32;20425;-57
2020/12/07 04:34:45;;;;;;;0.32;0.32;;;8.70;99.90;;;;;;4387514;32;20066;-54
2020/12/07 04:37:10;;;;;;;1.27;1.15;;;8.70;99.90;;;;;;4386196;32;20121;-58
2020/12/07 04:39:36;;;;;;;0.65;0.65;;;8.70;99.90;;;;;;4385869;32;20074;-58
2020/12/07 04:42:02;;;;;;;1.45;1.37;;;8.70;99.90;;;;;;4385818;32;20066;-57
2020/12/07 04:44:29;;;;;;;3.40;2.08;;;8.60;99.90;;;;;;4372387;32;20117;-56
2020/12/07 04:46:58;;;;;;;7.37;0.80;;;8.60;99.90;;;;;;4385821;32;20440;-59
2020/12/07 04:49:27;;;;;;;0.60;0.60;;;8.60;99.90;;;;;;4381604;32;20496;-58
2020/12/07 04:51:52;;;;;;;2.33;1.60;;;8.60;99.90;;;;;;4400770;32;20125;-59
2020/12/07 04:54:19;;;;;;;1.20;1.00;;;8.60;99.90;;;;;;4387566;32;20061;-58
2020/12/07 04:56:45;;;;;;;0.85;0.85;;;8.50;99.90;;;;;;4400155;32;20564;-58
2020/12/07 04:59:10;;;;;;;0.93;0.93;;;8.60;99.90;;;;;;4400282;32;20067;-58
2020/12/07 05:01:37;;;;;;;3.78;1.37;;;8.60;99.90;;;;;;4401753;32;20078;-55
2020/12/07 05:04:03;;;;;;;1.67;0.80;;;8.60;99.90;;;;;;4400433;32;20437;-55
2020/12/07 05:06:31;;;;;;;1.80;0.82;;;8.60;99.90;;;;;;4388394;32;20063;-55
2020/12/07 05:08:57;;;;;;;1.20;0.80;;;8.50;99.90;;;;;;4372182;32;20085;-56
2020/12/07 05:11:25;;;;;;;2.50;1.50;;;8.50;99.90;;;;;;4373112;32;20063;-58
2020/12/07 05:13:59;;;;;;;0.90;0.85;;;8.60;99.90;;;;;;4371376;32;20074;-59
2020/12/07 05:16:25;;;;;;;0.62;0.62;;;8.60;99.90;;;;;;4386256;32;20062;-58
2020/12/07 05:18:50;;;;;;;1.40;1.27;;;8.70;99.90;;;;;;4371757;32;20462;-58
2020/12/07 05:21:17;;;;;;;1.08;0.98;;;8.60;99.90;;;;;;4370937;32;20083;-55
2020/12/07 05:23:45;;;;;;;9.70;0.80;;;8.60;99.90;;;;;;4377951;32;20120;-57
2020/12/07 05:26:11;;;;;;;2.83;1.08;;;8.60;99.90;;;;;;4390017;32;20078;-56
2020/12/07 05:28:43;;;;;;;1.25;0.90;;;8.60;99.90;;;;;;4398473;32;20070;-54
2020/12/07 05:31:23;;;;;;;1.55;1.02;;;8.60;99.90;;;;;;4386787;32;20070;-55
2020/12/07 05:33:49;;;;;;;7.12;3.10;;;8.70;99.90;;;;;;4399612;32;20520;-58
2020/12/07 05:36:16;;;;;;;2.15;1.20;;;8.60;99.90;;;;;;4398459;32;20078;-59
2020/12/07 05:38:43;;;;;;;2.28;1.37;;;8.60;99.90;;;;;;4399683;32;20070;-59
2020/12/07 05:41:10;;;;;;;0.80;0.80;;;8.60;99.90;;;;;;4400308;32;20073;-58
2020/12/07 05:43:37;;;;;;;3.05;1.12;;;8.60;99.90;;;;;;4398807;32;20497;-59
2020/12/07 05:46:04;;;;;;;1.23;1.10;;;8.60;99.90;;;;;;4399783;32;20122;-58
2020/12/07 05:48:32;;;;;;;2.15;1.50;;;8.50;99.90;;;;;;4399742;32;20082;-58
2020/12/07 05:51:05;;;;;;;0.80;0.80;;;8.50;99.90;;;;;;4400006;32;20117;-58
2020/12/07 05:53:35;;;;;;;4.87;1.17;;;8.50;99.90;;;;;;4399247;32;20082;-58
2020/12/07 05:56:03;;;;;;;3.00;1.40;;;8.50;99.90;;;;;;4398404;32;20185;-59
2020/12/07 05:58:29;;;;;;;4.30;1.42;;;8.40;99.90;;;;;;4399693;32;20489;-58
2020/12/07 06:00:58;;;;;;;7.53;1.58;;;8.40;99.90;;;;;;4387671;32;20066;-57
2020/12/07 06:03:24;;;;;;;2.55;1.52;;;8.40;99.90;;;;;;4391296;32;20074;-58
2020/12/07 06:05:50;;;;;;;1.00;0.85;;;8.40;99.90;;;;;;4389132;32;20118;-58
2020/12/07 06:08:21;;;;;;;1.20;1.05;;;8.40;99.90;;;;;;4396015;32;20082;-57
2020/12/07 06:11:06;;;;;;;1.48;1.20;;;8.50;99.90;;;;;;4398777;32;20470;-58
2020/12/07 06:13:33;;;;;;;3.35;1.15;;;8.40;99.90;;;;;;4394859;32;20156;-57
2020/12/07 06:16:03;;;;;;;1.40;1.20;;;8.40;99.90;;;;;;4402756;32;20099;-57
2020/12/07 06:18:32;;;;;;;2.20;0.95;;;8.30;99.90;;;;;;4379600;32;20074;-58
2020/12/07 06:21:17;;;;;;;1.25;1.15;;;8.30;99.90;;;;;;4389347;32;20067;-59
2020/12/07 06:23:44;;;;;;;2.10;1.35;;;8.30;99.90;;;;;;4395047;32;20195;-59
2020/12/07 06:26:11;;;;;;;3.03;1.00;;;8.30;99.90;;;;;;4373099;32;20086;-57
2020/12/07 06:28:40;;;;;;;2.08;1.25;;;8.30;99.90;;;;;;4383369;32;20067;-59
2020/12/07 06:31:09;;;;;;;2.05;1.25;;;8.30;99.90;;;;;;4383983;32;20086;-61
2020/12/07 06:33:45;;;;;;;2.47;1.62;;;8.40;99.90;;;;;;4359964;32;20091;-55
2020/12/07 06:36:29;;;;;;;1.55;0.93;;;8.40;99.90;;;;;;4384416;32;20535;-58
2020/12/07 06:38:56;;;;;;;4.60;1.00;;;8.40;99.90;;;;;;4392212;32;20074;-58
2020/12/07 06:41:43;;;;;;;0.93;0.93;;;8.30;99.90;;;;;;4392939;32;20387;-55
2020/12/07 06:44:12;;;;;;;8.65;1.40;;;8.30;99.90;;;;;;4396941;32;20125;-57
2020/12/07 06:47:17;;;;;;;1.40;1.27;;;8.30;99.90;;;;;;4396283;32;21558;-57
2020/12/07 06:50:03;;;;;;;1.50;1.25;;;8.30;99.90;;;;;;4394410;32;20086;-59
2020/12/07 06:52:34;;;;;;;2.35;1.52;;;8.20;99.90;;;;;;4403306;32;20074;-57
2020/12/07 06:55:08;;;;;;;2.15;1.45;;;8.20;99.90;;;;;;4394496;32;20531;-54
2020/12/07 06:57:39;;;;;;;5.32;1.20;;;8.20;99.90;;;;;;4393028;32;20065;-58
2020/12/07 07:00:07;;;;;;;1.45;0.95;;;8.20;99.90;;;;;;4401097;32;20313;-58
2020/12/07 07:02:36;;;;;;;1.70;1.30;;;8.20;99.90;;;;;;4399127;32;20153;-59
2020/12/07 07:05:02;;;;;;;1.98;1.15;;;8.20;99.90;;;;;;4396237;32;20071;-57
2020/12/07 07:07:29;;;;;;;1.60;1.30;;;8.20;99.90;;;;;;4403713;32;20073;-57
2020/12/07 07:09:55;;;;;;;1.65;1.37;;;8.10;99.90;;;;;;4400281;32;20093;-54
2020/12/07 07:12:22;;;;;;;27.25;0.88;;;8.10;99.90;;;;;;4397510;32;20091;-54
2020/12/07 07:14:52;;;;;;;1.67;1.12;;;8.10;99.90;;;;;;4398468;32;20105;-56
2020/12/07 07:17:17;;;;;;;1.30;1.10;;;8.10;99.90;;;;;;4398104;32;20065;-57
2020/12/07 07:19:43;;;;;;;2.10;1.48;;;8.00;99.90;;;;;;4398626;32;20397;-58
2020/12/07 07:22:09;;;;;;;1.58;1.45;;;8.10;99.90;;;;;;4392460;32;20083;-58
2020/12/07 07:24:41;;;;;;;11.32;1.27;;;8.20;99.90;;;;;;4391892;32;20446;-58
2020/12/07 07:28:09;;;;;;;1.55;1.45;;;8.10;99.90;;;;;;4393977;32;20170;-58
2020/12/07 07:29:53;;;;;;;1.00;0.90;;;8.10;99.90;;;;;;4373939;32;20086;-57
2020/12/07 07:32:20;;;;;;;2.58;1.00;;;8.00;99.90;;;;;;4383561;32;20434;-56
2020/12/07 07:34:46;;;;;;;2.08;1.48;;;8.00;99.90;;;;;;4383172;32;20094;-58
2020/12/07 07:37:13;;;;;;;1.35;1.12;;;8.00;99.90;;;;;;4376046;32;20202;-58
2020/12/07 07:39:38;;;;;;;6.60;1.48;;;8.10;99.90;;;;;;4381321;32;20082;-58
2020/12/07 07:42:08;;;;;;;1.17;1.08;;;8.10;99.90;;;;;;4388372;32;20086;-58
2020/12/07 07:44:34;;;;;;;7.70;1.75;;;8.00;99.90;;;;;;4383760;32;20065;-57
2020/12/07 07:47:04;;;;;;;0.90;0.75;;;7.90;99.90;;;;;;4397595;32;20083;-56
2020/12/07 07:49:50;;;;;;;1.00;0.90;;;7.90;99.90;;;;;;4397264;32;20073;-59
2020/12/07 07:53:25;;;;;;;1.23;0.85;;;7.90;99.90;;;;;;4396694;32;20121;-59
2020/12/07 08:01:29;;;;;;;0.95;0.90;;;7.90;99.90;;;;;;4384431;32;20133;-59
2020/12/07 08:06:08;;;;;;;3.33;2.28;;;7.80;99.90;;;;;;4374458;32;20725;-59
2020/12/07 08:11:23;;;;;;;0.88;0.88;;;7.80;99.90;;;;;;4399793;32;20065;-56
2020/12/07 08:12:00;;;;;;;1.40;1.08;;;7.90;99.90;;;;;;4385674;32;20058;-58
2020/12/07 08:13:01;;;;;;;0.73;0.73;;;7.80;99.90;;;;;;4375499;32;20577;-55
2020/12/07 08:15:22;;;;;;;2.15;1.00;;;7.90;99.90;;;;;;4382928;32;20083;-56
2020/12/07 08:17:51;;;;;;;0.75;0.75;;;7.90;99.90;;;;;;4382841;32;20067;-57
2020/12/07 08:20:19;;;;;;;1.45;1.00;;;7.80;99.90;;;;;;4392628;32;20053;-57
2020/12/07 08:23:06;;;;;;;1.17;0.98;;;7.80;99.90;;;;;;4392037;32;20122;-57
2020/12/07 08:25:51;;;;;;;4.47;1.10;;;7.70;99.90;;;;;;4381305;32;20058;-58
2020/12/07 08:28:23;;;;;;;4.80;2.17;;;7.70;99.90;;;;;;4379529;32;20172;-54
2020/12/07 08:31:08;;;;;;;2.25;1.45;;;7.90;99.90;;;;;;4384059;32;20082;-58
2020/12/07 08:33:37;;;;;;;2.37;1.20;;;8.00;99.90;;;;;;4384899;32;20058;-57
2020/12/07 08:36:04;;;;;;;1.75;0.95;;;8.00;99.90;;;;;;4381079;32;20421;-57
2020/12/07 08:38:35;;;;;;;1.95;1.40;;;8.00;99.90;;;;;;4380246;32;20074;-58
2020/12/07 08:41:56;;;;;;;1.25;1.15;;;8.10;99.90;;;;;;4459420;32;117219;-58
2020/12/07 08:44:22;;;;;;;0.80;0.80;;;7.90;99.90;;;;;;4458008;32;20170;-55
2020/12/07 08:46:47;;;;;;;2.28;1.05;;;7.90;99.90;;;;;;4463336;32;20218;-56
2020/12/07 08:49:13;;;;;;;1.15;0.88;;;7.90;99.90;;;;;;4462976;32;20081;-56
2020/12/07 08:51:38;;;;;;;2.50;1.12;;;8.00;99.90;;;;;;4466914;32;20439;-57
2020/12/07 08:54:04;;;;;;;6.30;2.12;;;8.00;99.90;;;;;;4468695;32;20060;-55
2020/12/07 08:56:29;;;;;;;0.70;0.70;;;8.10;99.90;;;;;;4463635;32;20689;-56
2020/12/07 08:58:55;;;;;;;0.80;0.62;;;8.10;99.90;;;;;;4457128;32;20076;-54
2020/12/07 09:01:20;;;;;;;1.17;1.00;;;8.00;99.90;;;;;;4452692;32;20372;-56
2020/12/07 09:03:47;;;;;;;1.48;0.95;;;8.10;99.90;;;;;;4459603;32;20243;-55
2020/12/07 09:06:13;;;;;;;1.27;0.95;;;8.10;99.90;;;;;;4459687;32;20402;-54
2020/12/07 09:08:40;;;;;;;6.30;1.30;;;8.10;99.90;;;;;;4457726;32;20088;-55
2020/12/07 09:11:07;;;;;;;8.15;3.53;;;8.00;99.90;;;;;;4463606;32;20064;-55
2020/12/07 09:13:34;;;;;;;6.03;1.42;;;8.10;99.90;;;;;;4445124;32;20608;-54
2020/12/07 09:16:00;;;;;;;1.17;0.90;;;8.10;99.90;;;;;;4449936;32;20380;-55
2020/12/07 09:18:27;;;;;;;1.98;1.52;;;8.10;99.90;;;;;;4470218;32;20513;-55
2020/12/07 09:20:52;;;;;;;1.95;1.25;;;8.20;99.90;;;;;;4460218;32;20126;-53
2020/12/07 09:23:17;;;;;;;4.40;2.17;;;8.10;99.90;;;;;;4468696;32;20641;-55
2020/12/07 09:25:43;;;;;;;1.17;1.08;;;8.10;99.90;;;;;;4454226;32;20069;-57
2020/12/07 09:28:09;;;;;;;5.47;1.33;;;8.00;99.90;;;;;;4445212;32;20073;-57
2020/12/07 09:30:35;;;;;;;2.83;0.90;;;8.10;99.90;;;;;;4444370;32;20138;-57
2020/12/07 09:33:01;;;;;;;3.55;1.30;;;8.00;99.90;;;;;;4440352;32;20084;-56
2020/12/07 09:35:26;;;;;;;1.02;1.02;;;8.00;99.90;;;;;;4454850;32;20065;-56
2020/12/07 09:37:52;;;;;;;3.42;1.50;;;8.10;99.90;;;;;;4455452;32;20065;-59
2020/12/07 09:40:17;;;;;;;0.70;0.70;;;8.00;99.90;;;;;;4451098;32;20080;-59
2020/12/07 09:42:43;;;;;;;2.47;1.62;;;8.00;99.90;;;;;;4454841;32;20049;-56
2020/12/07 09:45:09;;;;;;;1.27;1.00;;;8.10;99.90;;;;;;4453829;32;20375;-58
2020/12/07 09:47:35;;;;;;;6.20;1.70;;;8.20;99.90;;;;;;4439946;32;20080;-57
2020/12/07 09:50:03;;;;;;;7.55;0.90;;;8.20;99.90;;;;;;4452505;32;20071;-56
2020/12/07 09:52:28;;;;;;;0.95;0.75;;;8.20;99.90;;;;;;4446110;32;20072;-59
2020/12/07 09:54:54;;;;;;;1.33;1.23;;;8.20;99.90;;;;;;4442617;32;20125;-59
2020/12/07 09:57:19;;;;;;;0.82;0.82;;;8.10;99.90;;;;;;4437866;32;20112;-59
2020/12/07 09:59:48;;;;;;;1.15;1.05;;;8.20;99.90;;;;;;4440360;32;20093;-59
2020/12/07 10:02:13;;;;;;;1.52;0.80;;;8.10;99.90;;;;;;4442554;32;20061;-58
2020/12/07 10:04:39;;;;;;;0.68;0.68;;;8.10;99.90;;;;;;4441151;32;20073;-59
2020/12/07 10:07:04;;;;;;;1.77;1.48;;;8.10;99.90;;;;;;4442020;32;20480;-60
2020/12/07 10:09:30;;;;;;;7.78;1.65;;;8.20;99.90;;;;;;4441291;32;20128;-59
2020/12/07 10:11:55;;;;;;;3.17;1.23;;;8.10;99.90;;;;;;4441659;32;20560;-55
2020/12/07 10:14:21;;;;;;;3.20;1.15;;;8.00;99.90;;;;;;4438097;32;20057;-56
2020/12/07 10:16:46;;;;;;;1.95;1.58;;;8.00;99.90;;;;;;4442060;32;20084;-58
2020/12/07 10:19:12;;;;;;;1.77;1.60;;;8.10;99.90;;;;;;4438890;32;20458;-59
2020/12/07 10:21:40;;;;;;;1.37;1.20;;;8.10;99.90;;;;;;4441957;32;20068;-59
2020/12/07 10:24:05;;;;;;;0.70;0.70;;;8.10;99.90;;;;;;4435301;32;20100;-57
2020/12/07 10:26:31;;;;;;;5.65;2.00;;;8.10;99.90;;;;;;4432168;32;20089;-58
2020/12/07 10:28:57;;;;;;;8.43;1.15;;;8.10;99.90;;;;;;4438405;32;20168;-55
2020/12/07 10:31:23;;;;;;;2.10;1.23;;;8.10;99.90;;;;;;4436750;32;20202;-57
2020/12/07 10:33:49;;;;;;;0.90;0.90;;;8.10;99.90;;;;;;4425991;32;20074;-57
2020/12/07 10:36:16;;;;;;;1.48;1.02;;;8.10;99.90;;;;;;4440929;32;20565;-57
2020/12/07 10:38:43;;;;;;;3.17;1.15;;;8.20;99.90;;;;;;4442195;32;20593;-58
2020/12/07 10:41:09;;;;;;;3.00;1.42;;;8.10;99.90;;;;;;4442661;32;20076;-58
2020/12/07 10:43:34;;;;;;;2.37;1.12;;;8.00;99.90;;;;;;4430828;32;20073;-56
2020/12/07 10:46:01;;;;;;;1.17;0.90;;;8.10;99.90;;;;;;4443195;32;20057;-58
2020/12/07 10:48:26;;;;;;;6.53;2.53;;;8.10;99.90;;;;;;4443919;32;20438;-58
2020/12/07 10:50:52;;;;;;;1.65;1.23;;;8.10;99.90;;;;;;4441155;32;20395;-59
2020/12/07 10:53:17;;;;;;;2.65;1.70;;;8.20;99.90;;;;;;4439151;32;20065;-58
2020/12/07 10:55:43;;;;;;;1.27;1.10;;;8.20;99.90;;;;;;4442280;32;20440;-58
2020/12/07 10:58:08;;;;;;;1.27;0.88;;;8.20;99.90;;;;;;4438917;32;20080;-58
2020/12/07 11:00:36;;;;;;;1.45;1.35;;;8.20;99.90;;;;;;4443100;32;20126;-58
2020/12/07 11:03:03;;;;;;;1.20;0.93;;;8.20;99.90;;;;;;4444206;32;20070;-58
2020/12/07 11:05:29;;;;;;;1.00;0.93;;;8.30;99.90;;;;;;4442627;32;20552;-59
2020/12/07 11:07:55;;;;;;;0.82;0.82;;;8.30;99.90;;;;;;4443470;32;20120;-59
2020/12/07 11:10:21;;;;;;;0.50;0.50;;;8.20;99.90;;;;;;4443444;32;20126;-58
2020/12/07 11:12:52;;;;;;;10.10;1.23;;;8.30;99.90;;;;;;4437833;32;20084;-58
2020/12/07 11:15:18;;;;;;;0.85;0.77;;;8.40;99.90;;;;;;4441805;32;20123;-59
2020/12/07 11:17:44;;;;;;;0.60;0.60;;;8.40;99.90;;;;;;4443117;32;20064;-61
2020/12/07 11:20:09;;;;;;;0.80;0.80;;;8.40;99.90;;;;;;4437017;32;20073;-60
2020/12/07 11:22:35;;;;;;;1.75;1.02;;;8.40;99.90;;;;;;4435441;32;20230;-60
2020/12/07 11:25:00;;;;;;;1.27;1.02;;;8.30;99.90;;;;;;4427654;32;20495;-60
2020/12/07 11:27:26;;;;;;;1.30;1.02;;;8.30;99.90;;;;;;4424873;32;20135;-59
2020/12/07 11:29:51;;;;;;;0.88;0.88;;;8.30;99.90;;;;;;4427800;32;20135;-58
2020/12/07 11:32:16;;;;;;;2.15;1.37;;;8.30;99.90;;;;;;4430260;32;20525;-58
2020/12/07 11:34:42;;;;;;;2.78;1.52;;;8.30;99.90;;;;;;4425854;32;20392;-55
2020/12/07 11:37:08;;;;;;;1.80;1.12;;;8.30;99.90;;;;;;4428251;32;20077;-58
2020/12/07 11:42:11;;;;;;;1.50;1.37;;;8.20;99.90;;;;;;4425419;32;20562;-58
2020/12/07 11:44:36;;;;;;;0.95;0.88;;;8.20;99.90;;;;;;4424310;32;20463;-57
2020/12/07 11:47:06;;;;;;;1.90;1.12;;;8.20;99.90;;;;;;4428022;32;20065;-57
2020/12/07 11:49:32;;;;;;;7.12;1.85;;;8.30;99.90;;;;;;4433572;32;20334;-57
2020/12/07 11:52:02;;;;;;;1.85;0.98;;;8.40;99.90;;;;;;4437855;32;20085;-55
2020/12/07 11:54:27;;;;;;;0.60;0.60;;;8.50;99.90;;;;;;4433894;32;20089;-56
2020/12/07 11:56:53;;;;;;;2.85;1.48;;;8.50;99.90;;;;;;4437486;32;20049;-57
2020/12/07 11:59:18;;;;;;;3.03;1.42;;;8.40;99.90;;;;;;4437394;32;20476;-58
2020/12/07 12:01:44;;;;;;;0.57;0.57;;;8.40;99.90;;;;;;4438010;32;20084;-57
2020/12/07 12:04:09;;;;;;;2.03;1.00;;;8.50;99.90;;;;;;4440207;32;20073;-58
2020/12/07 12:06:37;;;;;;;1.80;1.58;;;8.50;99.90;;;;;;4442663;32;20057;-56
2020/12/07 12:09:09;;;;;;;2.45;1.75;;;8.60;99.90;;;;;;4441965;32;20069;-58
2020/12/07 12:11:36;;;;;;;1.15;1.05;;;8.50;99.90;;;;;;4436807;32;20549;-57
2020/12/07 12:14:03;;;;;;;2.03;1.45;;;8.60;99.90;;;;;;4431136;32;20065;-56
2020/12/07 12:16:29;;;;;;;1.23;1.12;;;8.60;99.90;;;;;;4425367;32;20069;-57
2020/12/07 12:18:55;;;;;;;2.60;1.45;;;8.60;99.90;;;;;;4424327;32;20495;-57
2020/12/07 12:21:23;;;;;;;6.05;2.70;;;8.60;99.90;;;;;;4439554;32;20082;-57
2020/12/07 12:23:48;;;;;;;1.02;0.70;;;8.60;99.90;;;;;;4426343;32;20053;-56
2020/12/07 12:26:15;;;;;;;4.03;1.33;;;8.60;99.90;;;;;;4436868;32;20053;-57
2020/12/07 12:28:40;;;;;;;0.80;0.80;;;8.60;99.90;;;;;;4430751;32;20049;-56
2020/12/07 12:31:07;;;;;;;4.12;2.35;;;8.60;99.90;;;;;;4441314;32;20560;-57
2020/12/07 12:33:33;;;;;;;10.88;3.45;;;8.50;99.90;;;;;;4433892;32;20106;-53
2020/12/07 12:35:59;;;;;;;2.05;1.48;;;8.40;99.90;;;;;;4434419;32;20081;-57
2020/12/07 12:38:25;;;;;;;14.15;0.85;;;8.40;99.90;;;;;;4440656;32;20499;-57
2020/12/07 12:40:51;;;;;;;2.92;1.80;;;8.40;99.90;;;;;;4439661;32;20090;-56
2020/12/07 12:43:16;;;;;;;5.05;1.40;;;8.40;99.90;;;;;;4436668;32;20551;-58
2020/12/07 12:45:42;;;;;;;1.45;1.30;;;8.40;99.90;;;;;;4435727;32;20197;-58
2020/12/07 12:48:07;;;;;;;1.60;0.88;;;8.30;99.90;;;;;;4431418;32;20135;-55
2020/12/07 12:50:33;;;;;;;1.80;1.17;;;8.10;99.90;;;;;;4436220;32;20058;-57
2020/12/07 12:52:58;;;;;;;1.17;1.05;;;8.20;99.90;;;;;;4434038;32;20085;-57
2020/12/07 12:55:24;;;;;;;2.45;1.12;;;8.20;99.90;;;;;;4439392;32;20695;-54
2020/12/07 12:57:49;;;;;;;1.73;1.12;;;8.20;99.90;;;;;;4436721;32;20052;-57
2020/12/07 13:00:15;;;;;;;4.87;1.80;;;8.20;99.90;;;;;;4440415;32;20128;-58
2020/12/07 13:02:40;;;;;;;1.50;1.37;;;8.10;99.90;;;;;;4434528;32;20050;-55
2020/12/07 13:05:06;;;;;;;1.95;1.45;;;8.10;99.90;;;;;;4435871;32;20052;-58
2020/12/07 13:07:31;;;;;;;4.03;1.17;;;8.00;99.90;;;;;;4439174;32;20507;-53